AirNav   Jet Aviation Boston
 
 1184 users online  

9FL1 Flying W Airranch Airport
Bushnell, Florida, USA

GOING TO BUSHNELL?


FAA INFORMATION EFFECTIVE 19 JULY 2018

Location

FAA Identifier: 9FL1
Lat/Long: 28-41-00.9680N / 082-09-27.3120W
28-41.016133N / 082-09.455200W
28.6836022 / -82.1575867
(estimated)
Elevation: 58 ft. / 18 m (estimated)
Variation: 02W (1985)
From city: 3 miles NW of BUSHNELL, FL
Time zone: UTC -4 (UTC -5 during Standard Time)
Zip code: 33513

Airport Operations

Airport use: Private use. Permission required prior to landing
Control tower: no
ARTCC: JACKSONVILLE CENTER
FSS: SAINT PETERSBURG FLIGHT SERVICE STATION
Attendance: 0800-1800
Wind indicator: yes
Segmented circle: no
Lights: SS-SR

Airport Communications

WX AWOS-3 at INF (11 nm NW): 119.975 (352-341-0264)
  • COMMUNICATIONS FREQUENCY 123.0.

Nearby radio navigation aids

VOR radial/distance  VOR name  Freq  Var
OCFr173/29.9OCALA VORTAC113.7000E

 
NDB name  Hdg/Dist  Freq  Var  ID
LEESBURG250/20.133504WLEE .-.. . .

Airport Services

Parking: hangars
Airframe service: MAJOR
Powerplant service: MAJOR
Bottled oxygen: NONE
Bulk oxygen: NONE

Runway Information

Runway 9/27

Dimensions: 3415 x 100 ft. / 1041 x 30 m
Surface: turf
Runway edge lights: low intensity
Runway edge markings: WHITE TIRES AROUND LGTS & THLD BARS.
Gradient: ESTD.
RUNWAY 9  RUNWAY 27
Traffic pattern: leftleft
Runway end identifier lights: nono
Obstructions: trees, 1100 ft. from runway, 18:1 slope to cleartrees, 1000 ft. from runway, 13:1 slope to clear

Airport Ownership and Management from official FAA records

Ownership: Privately-owned
Owner: ROBERT WILLIAMS
5020 CR-316A
BUSHNELL, FL 33513
Phone 352-603-0611
Manager: ROBERT WILLIAMS
5020 CR-316A
BUSHNELL, FL 33513
Phone 352-603-0611

Airport Operational Statistics

Aircraft based on the field: 5
Single engine airplanes: 5
    
Aircraft operations: avg 77/week *
50% transient general aviation
50% local general aviation
* for 12-month period ending 10 July 1974

Instrument Procedures

There are no published instrument procedures at 9FL1.

Some nearby airports with instrument procedures:

KINF - Inverness Airport (11 nm NW)
KBKV - Brooksville-Tampa Bay Regional Airport (20 nm SW)
KLEE - Leesburg International Airport (20 nm NE)
KCGC - Crystal River Airport-Captain Tom Davis Field (25 nm NW)
X35 - Marion County Airport (25 nm NW)
 
Loc | Ops | Rwys | IFR | FBO | Links
Com | Nav | Svcs | Stats | Notes


 
Area around 9FL1 (Flying W Airranch Airport)
 
Road maps at: MapQuest Bing Google
 
Aerial photo
WARNING: Photo may not be current or correct
Aerial photo of 9FL1 (Flying W Airranch Airport)
Do you have a better or more recent aerial photo of Flying W Airranch Airport that you would like to share? If so, please send us your photo.

 
Sectional chart

 
Airport distance calculator
Flying to Flying W Airranch Airport? Find the distance to fly.

From to 9FL1

Sunrise and sunset
Times for 22-Jul-2018
 Local
(UTC-4)
 Zulu
(UTC)
Morning civil twilight06:1910:19
Sunrise06:4510:45
Sunset20:2500:25
Evening civil twilight20:5100:51

Current date and time
Zulu (UTC)  22-Jul-2018 17:57:37
Local (UTC-4)  22-Jul-2018 13:57:37
 
METAR
KINF 
11nm NW 
221735Z AUTO 24009G14KT 200V280 10SM SCT026 BKN032 BKN039 32/28 A2986 RMK AO2 LTG DSNT NE AND E
KLEE 
20nm NE 
221753Z 21012G16KT 10SM TS FEW036 BKN044 BKN049 33/27 A2985 RMK AO2 LTG DSNT W-NE TSB35 SLP108 T03280267 10333 20272 56021
KBKV 
20nm SW 
221753Z 24014G22KT 10SM FEW024 SCT030 BKN036 32/26 A2988 RMK AO2 LTG DSNT NE SLP115 T03170261 10322 20272 56019
TAF
KLEE 
20nm NE 
221343Z 2214/2312 24008KT P6SM SCT015 SCT300 FM221500 25010KT P6SM VCSH SCT025 SCT040 FM221700 27012KT P6SM VCTS SCT035CB BKN060 TEMPO 2220/2222 33018G30KT 3SM TSRA SCT025CB BKN035 FM230200 23005KT P6SM FEW040 SCT060 BKN150
NOTAMs
Click for the latest NOTAMs
NOTAMs are issued by the DoD/FAA and will open in a separate window not controlled by AirNav.

 

 
 

Would you like to see your business listed on this page?

 If your business provides an interesting product or service to pilots, flight crews, aircraft, or users of the Flying W Airranch Airport, you should consider listing it here.  To start the listing process, click on the button below
 
Add a business
 

Other Pages about Flying W Airranch Airport

Update a link
 
Copyright © AirNav, LLC. All rights reserved. Privacy Policy  Contact